sensor_id;sensor_type;location;lat;lon;timestamp;temperature;humidity
27114;DHT22;14648;49.730;8.614;2024-03-17T00:01:38;9.10;58.20
27114;DHT22;14648;49.730;8.614;2024-03-17T00:04:07;9.10;58.20
27114;DHT22;14648;49.730;8.614;2024-03-17T00:06:33;9.10;58.10
27114;DHT22;14648;49.730;8.614;2024-03-17T00:08:59;9.10;58.10
27114;DHT22;14648;49.730;8.614;2024-03-17T00:11:26;9.10;58.10
27114;DHT22;14648;49.730;8.614;2024-03-17T00:13:52;9.10;58.00
27114;DHT22;14648;49.730;8.614;2024-03-17T00:16:17;9.10;58.10
27114;DHT22;14648;49.730;8.614;2024-03-17T00:18:45;9.10;58.10
27114;DHT22;14648;49.730;8.614;2024-03-17T00:21:14;9.10;58.10
27114;DHT22;14648;49.730;8.614;2024-03-17T00:23:39;9.10;58.10
27114;DHT22;14648;49.730;8.614;2024-03-17T00:26:05;9.10;58.10
27114;DHT22;14648;49.730;8.614;2024-03-17T00:28:31;9.00;57.90
27114;DHT22;14648;49.730;8.614;2024-03-17T00:30:57;9.00;57.80
27114;DHT22;14648;49.730;8.614;2024-03-17T00:33:23;9.00;57.80
27114;DHT22;14648;49.730;8.614;2024-03-17T00:35:49;9.00;57.80
27114;DHT22;14648;49.730;8.614;2024-03-17T00:38:15;8.90;57.80
27114;DHT22;14648;49.730;8.614;2024-03-17T00:40:41;8.90;57.80
27114;DHT22;14648;49.730;8.614;2024-03-17T00:43:07;8.90;57.80
27114;DHT22;14648;49.730;8.614;2024-03-17T00:45:33;8.80;57.70
27114;DHT22;14648;49.730;8.614;2024-03-17T00:47:59;8.70;57.90
27114;DHT22;14648;49.730;8.614;2024-03-17T00:50:25;8.70;57.90
27114;DHT22;14648;49.730;8.614;2024-03-17T00:52:51;8.70;57.90
27114;DHT22;14648;49.730;8.614;2024-03-17T00:55:16;8.60;57.80
27114;DHT22;14648;49.730;8.614;2024-03-17T00:57:42;8.60;57.90
27114;DHT22;14648;49.730;8.614;2024-03-17T01:00:08;8.60;57.80
27114;DHT22;14648;49.730;8.614;2024-03-17T01:02:37;8.60;57.80
27114;DHT22;14648;49.730;8.614;2024-03-17T01:05:05;8.60;57.70
27114;DHT22;14648;49.730;8.614;2024-03-17T01:07:32;8.50;57.70
27114;DHT22;14648;49.730;8.614;2024-03-17T01:09:58;8.50;57.80
27114;DHT22;14648;49.730;8.614;2024-03-17T01:12:25;8.40;57.70
27114;DHT22;14648;49.730;8.614;2024-03-17T01:14:51;8.40;57.70
27114;DHT22;14648;49.730;8.614;2024-03-17T01:17:17;8.40;57.70
27114;DHT22;14648;49.730;8.614;2024-03-17T01:19:44;8.30;57.70
27114;DHT22;14648;49.730;8.614;2024-03-17T01:22:10;8.30;57.70
27114;DHT22;14648;49.730;8.614;2024-03-17T01:24:36;8.30;57.60
27114;DHT22;14648;49.730;8.614;2024-03-17T01:27:05;8.20;57.60
27114;DHT22;14648;49.730;8.614;2024-03-17T01:29:32;8.20;57.70
27114;DHT22;14648;49.730;8.614;2024-03-17T01:31:57;8.10;57.70
27114;DHT22;14648;49.730;8.614;2024-03-17T01:34:23;8.20;57.70
27114;DHT22;14648;49.730;8.614;2024-03-17T01:36:49;8.10;57.60
27114;DHT22;14648;49.730;8.614;2024-03-17T01:39:15;8.10;57.60
27114;DHT22;14648;49.730;8.614;2024-03-17T01:41:42;8.00;57.50
27114;DHT22;14648;49.730;8.614;2024-03-17T01:44:08;8.00;57.50
27114;DHT22;14648;49.730;8.614;2024-03-17T01:46:47;8.00;57.40
27114;DHT22;14648;49.730;8.614;2024-03-17T01:49:13;7.90;57.40
27114;DHT22;14648;49.730;8.614;2024-03-17T01:51:39;7.90;57.40
27114;DHT22;14648;49.730;8.614;2024-03-17T01:54:05;7.80;57.20
27114;DHT22;14648;49.730;8.614;2024-03-17T01:56:31;7.80;57.20
27114;DHT22;14648;49.730;8.614;2024-03-17T01:58:57;7.80;57.20
27114;DHT22;14648;49.730;8.614;2024-03-17T02:01:23;7.70;57.20
27114;DHT22;14648;49.730;8.614;2024-03-17T02:03:49;7.70;57.20
27114;DHT22;14648;49.730;8.614;2024-03-17T02:06:15;7.60;57.20
27114;DHT22;14648;49.730;8.614;2024-03-17T02:08:52;7.60;57.30
27114;DHT22;14648;49.730;8.614;2024-03-17T02:11:32;7.50;57.30
27114;DHT22;14648;49.730;8.614;2024-03-17T02:14:01;7.50;57.30
27114;DHT22;14648;49.730;8.614;2024-03-17T02:16:27;7.50;57.20
27114;DHT22;14648;49.730;8.614;2024-03-17T02:18:54;7.40;57.10
27114;DHT22;14648;49.730;8.614;2024-03-17T02:21:21;7.30;57.20
27114;DHT22;14648;49.730;8.614;2024-03-17T02:23:51;7.30;57.20
27114;DHT22;14648;49.730;8.614;2024-03-17T02:26:17;7.30;57.20
27114;DHT22;14648;49.730;8.614;2024-03-17T02:28:45;7.20;57.10
27114;DHT22;14648;49.730;8.614;2024-03-17T02:31:12;7.20;57.00
27114;DHT22;14648;49.730;8.614;2024-03-17T02:33:39;7.20;57.00
27114;DHT22;14648;49.730;8.614;2024-03-17T02:36:06;7.10;57.10
27114;DHT22;14648;49.730;8.614;2024-03-17T02:38:36;7.10;57.10
27114;DHT22;14648;49.730;8.614;2024-03-17T02:41:21;7.10;57.10
27114;DHT22;14648;49.730;8.614;2024-03-17T02:43:47;7.00;57.00
27114;DHT22;14648;49.730;8.614;2024-03-17T02:46:15;7.00;57.00
27114;DHT22;14648;49.730;8.614;2024-03-17T02:48:43;7.00;57.00
27114;DHT22;14648;49.730;8.614;2024-03-17T02:51:16;6.90;57.00
27114;DHT22;14648;49.730;8.614;2024-03-17T02:53:47;6.90;57.00
27114;DHT22;14648;49.730;8.614;2024-03-17T02:56:14;6.80;56.90
27114;DHT22;14648;49.730;8.614;2024-03-17T02:58:44;6.80;57.00
27114;DHT22;14648;49.730;8.614;2024-03-17T03:01:17;6.70;57.10
27114;DHT22;14648;49.730;8.614;2024-03-17T03:03:43;6.70;57.20
27114;DHT22;14648;49.730;8.614;2024-03-17T03:06:10;6.60;57.10
27114;DHT22;14648;49.730;8.614;2024-03-17T03:08:38;6.60;57.20
27114;DHT22;14648;49.730;8.614;2024-03-17T03:11:07;6.60;57.30
27114;DHT22;14648;49.730;8.614;2024-03-17T03:13:41;6.50;57.30
27114;DHT22;14648;49.730;8.614;2024-03-17T03:16:09;6.50;57.30
27114;DHT22;14648;49.730;8.614;2024-03-17T03:18:37;6.50;57.20
27114;DHT22;14648;49.730;8.614;2024-03-17T03:21:04;6.50;57.10
27114;DHT22;14648;49.730;8.614;2024-03-17T03:23:31;6.60;57.10
27114;DHT22;14648;49.730;8.614;2024-03-17T03:25:58;6.50;57.10
27114;DHT22;14648;49.730;8.614;2024-03-17T03:28:26;6.50;57.00
27114;DHT22;14648;49.730;8.614;2024-03-17T03:30:52;6.50;57.00
27114;DHT22;14648;49.730;8.614;2024-03-17T03:33:19;6.40;57.00
27114;DHT22;14648;49.730;8.614;2024-03-17T03:35:45;6.40;57.00
27114;DHT22;14648;49.730;8.614;2024-03-17T03:38:12;6.40;57.00
27114;DHT22;14648;49.730;8.614;2024-03-17T03:40:41;6.40;57.00
27114;DHT22;14648;49.730;8.614;2024-03-17T03:43:08;6.40;57.10
27114;DHT22;14648;49.730;8.614;2024-03-17T03:45:34;6.40;57.20
27114;DHT22;14648;49.730;8.614;2024-03-17T03:48:01;6.40;57.20
27114;DHT22;14648;49.730;8.614;2024-03-17T03:50:30;6.40;57.20
27114;DHT22;14648;49.730;8.614;2024-03-17T03:52:57;6.40;57.20
27114;DHT22;14648;49.730;8.614;2024-03-17T03:55:23;6.50;57.30
27114;DHT22;14648;49.730;8.614;2024-03-17T03:57:49;6.50;57.30
27114;DHT22;14648;49.730;8.614;2024-03-17T04:00:19;6.50;57.30
27114;DHT22;14648;49.730;8.614;2024-03-17T04:02:48;6.50;57.30
27114;DHT22;14648;49.730;8.614;2024-03-17T04:05:16;6.50;57.30
27114;DHT22;14648;49.730;8.614;2024-03-17T04:07:42;6.50;57.30
27114;DHT22;14648;49.730;8.614;2024-03-17T04:10:09;6.50;57.40
27114;DHT22;14648;49.730;8.614;2024-03-17T04:12:35;6.50;57.30
27114;DHT22;14648;49.730;8.614;2024-03-17T04:15:01;6.50;57.30
27114;DHT22;14648;49.730;8.614;2024-03-17T04:17:28;6.60;57.20
27114;DHT22;14648;49.730;8.614;2024-03-17T04:19:54;6.50;57.20
27114;DHT22;14648;49.730;8.614;2024-03-17T04:22:21;6.40;57.10
27114;DHT22;14648;49.730;8.614;2024-03-17T04:24:48;6.50;57.30
27114;DHT22;14648;49.730;8.614;2024-03-17T04:27:28;6.40;57.20
27114;DHT22;14648;49.730;8.614;2024-03-17T04:29:55;6.40;57.20
27114;DHT22;14648;49.730;8.614;2024-03-17T04:32:23;6.30;57.30
27114;DHT22;14648;49.730;8.614;2024-03-17T04:34:49;6.30;57.30
27114;DHT22;14648;49.730;8.614;2024-03-17T04:37:16;6.30;57.40
27114;DHT22;14648;49.730;8.614;2024-03-17T04:39:43;6.30;57.30
27114;DHT22;14648;49.730;8.614;2024-03-17T04:42:10;6.20;57.20
27114;DHT22;14648;49.730;8.614;2024-03-17T04:44:41;6.20;57.20
27114;DHT22;14648;49.730;8.614;2024-03-17T04:47:07;6.20;57.20
27114;DHT22;14648;49.730;8.614;2024-03-17T04:49:37;6.10;57.20
27114;DHT22;14648;49.730;8.614;2024-03-17T04:52:07;6.10;57.30
27114;DHT22;14648;49.730;8.614;2024-03-17T04:54:33;6.00;57.20
27114;DHT22;14648;49.730;8.614;2024-03-17T04:56:59;6.00;57.30
27114;DHT22;14648;49.730;8.614;2024-03-17T04:59:25;6.00;57.20
27114;DHT22;14648;49.730;8.614;2024-03-17T05:01:52;6.00;57.30
27114;DHT22;14648;49.730;8.614;2024-03-17T05:04:18;6.00;57.30
27114;DHT22;14648;49.730;8.614;2024-03-17T05:06:44;5.90;57.20
27114;DHT22;14648;49.730;8.614;2024-03-17T05:09:15;5.90;57.20
27114;DHT22;14648;49.730;8.614;2024-03-17T05:11:42;5.90;57.30
27114;DHT22;14648;49.730;8.614;2024-03-17T05:14:08;5.90;57.20
27114;DHT22;14648;49.730;8.614;2024-03-17T05:16:34;5.80;57.30
27114;DHT22;14648;49.730;8.614;2024-03-17T05:19:00;5.80;57.30
27114;DHT22;14648;49.730;8.614;2024-03-17T05:21:25;5.80;57.50
27114;DHT22;14648;49.730;8.614;2024-03-17T05:23:55;5.80;57.50
27114;DHT22;14648;49.730;8.614;2024-03-17T05:26:22;5.80;57.40
27114;DHT22;14648;49.730;8.614;2024-03-17T05:28:48;5.80;57.50
27114;DHT22;14648;49.730;8.614;2024-03-17T05:31:14;5.70;57.80
27114;DHT22;14648;49.730;8.614;2024-03-17T05:33:46;5.80;57.80
27114;DHT22;14648;49.730;8.614;2024-03-17T05:36:12;5.70;58.40
27114;DHT22;14648;49.730;8.614;2024-03-17T05:38:38;5.80;57.70
27114;DHT22;14648;49.730;8.614;2024-03-17T05:41:05;5.80;57.70
27114;DHT22;14648;49.730;8.614;2024-03-17T05:43:34;5.80;57.70
27114;DHT22;14648;49.730;8.614;2024-03-17T05:46:08;5.90;57.90
27114;DHT22;14648;49.730;8.614;2024-03-17T05:48:35;6.00;57.80
27114;DHT22;14648;49.730;8.614;2024-03-17T05:51:09;6.00;57.80
27114;DHT22;14648;49.730;8.614;2024-03-17T05:53:36;6.00;57.90
27114;DHT22;14648;49.730;8.614;2024-03-17T05:56:06;6.10;58.00
27114;DHT22;14648;49.730;8.614;2024-03-17T05:58:37;6.10;58.00
27114;DHT22;14648;49.730;8.614;2024-03-17T06:01:03;6.20;58.00
27114;DHT22;14648;49.730;8.614;2024-03-17T06:03:30;6.20;58.00
27114;DHT22;14648;49.730;8.614;2024-03-17T06:05:58;6.20;58.00
27114;DHT22;14648;49.730;8.614;2024-03-17T06:08:24;6.30;58.20
27114;DHT22;14648;49.730;8.614;2024-03-17T06:10:50;6.30;58.20
27114;DHT22;14648;49.730;8.614;2024-03-17T06:13:16;6.40;58.10
27114;DHT22;14648;49.730;8.614;2024-03-17T06:15:45;6.50;58.30
27114;DHT22;14648;49.730;8.614;2024-03-17T06:18:14;6.40;58.20
27114;DHT22;14648;49.730;8.614;2024-03-17T06:20:43;6.50;58.30
27114;DHT22;14648;49.730;8.614;2024-03-17T06:23:10;6.60;58.30
27114;DHT22;14648;49.730;8.614;2024-03-17T06:25:47;6.60;58.30
27114;DHT22;14648;49.730;8.614;2024-03-17T06:28:15;6.60;58.30
27114;DHT22;14648;49.730;8.614;2024-03-17T06:30:55;6.70;58.50
27114;DHT22;14648;49.730;8.614;2024-03-17T06:33:25;6.70;58.50
27114;DHT22;14648;49.730;8.614;2024-03-17T06:35:51;6.70;58.40
27114;DHT22;14648;49.730;8.614;2024-03-17T06:38:17;6.70;58.40
27114;DHT22;14648;49.730;8.614;2024-03-17T06:40:50;6.70;58.40
27114;DHT22;14648;49.730;8.614;2024-03-17T06:43:18;6.70;58.50
27114;DHT22;14648;49.730;8.614;2024-03-17T06:45:57;6.70;58.50
27114;DHT22;14648;49.730;8.614;2024-03-17T06:48:24;6.70;58.60
27114;DHT22;14648;49.730;8.614;2024-03-17T06:50:51;6.70;58.60
27114;DHT22;14648;49.730;8.614;2024-03-17T06:53:18;6.80;59.20
27114;DHT22;14648;49.730;8.614;2024-03-17T06:55:52;6.80;58.60
27114;DHT22;14648;49.730;8.614;2024-03-17T06:58:23;6.80;58.70
27114;DHT22;14648;49.730;8.614;2024-03-17T07:00:53;6.90;58.90
27114;DHT22;14648;49.730;8.614;2024-03-17T07:03:20;7.00;58.80
27114;DHT22;14648;49.730;8.614;2024-03-17T07:05:59;7.10;58.90
27114;DHT22;14648;49.730;8.614;2024-03-17T07:08:29;7.10;59.00
27114;DHT22;14648;49.730;8.614;2024-03-17T07:11:03;7.30;59.00
27114;DHT22;14648;49.730;8.614;2024-03-17T07:13:32;7.30;59.00
27114;DHT22;14648;49.730;8.614;2024-03-17T07:16:00;7.40;59.00
27114;DHT22;14648;49.730;8.614;2024-03-17T07:18:30;7.50;59.10
27114;DHT22;14648;49.730;8.614;2024-03-17T07:20:57;7.70;59.20
27114;DHT22;14648;49.730;8.614;2024-03-17T07:23:25;7.70;59.20
27114;DHT22;14648;49.730;8.614;2024-03-17T07:25:55;7.80;59.10
27114;DHT22;14648;49.730;8.614;2024-03-17T07:28:22;7.90;59.30
27114;DHT22;14648;49.730;8.614;2024-03-17T07:30:49;8.00;59.20
27114;DHT22;14648;49.730;8.614;2024-03-17T07:33:20;8.10;59.40
27114;DHT22;14648;49.730;8.614;2024-03-17T07:35:57;8.20;59.30
27114;DHT22;14648;49.730;8.614;2024-03-17T07:38:26;8.30;59.50
27114;DHT22;14648;49.730;8.614;2024-03-17T07:41:04;8.50;59.50
27114;DHT22;14648;49.730;8.614;2024-03-17T07:43:33;8.80;59.30
27114;DHT22;14648;49.730;8.614;2024-03-17T07:46:03;9.10;59.10
27114;DHT22;14648;49.730;8.614;2024-03-17T07:48:35;9.20;59.10
27114;DHT22;14648;49.730;8.614;2024-03-17T07:51:04;9.50;59.40
27114;DHT22;14648;49.730;8.614;2024-03-17T07:53:35;9.80;59.20
27114;DHT22;14648;49.730;8.614;2024-03-17T07:56:09;10.10;59.40
27114;DHT22;14648;49.730;8.614;2024-03-17T07:58:37;10.40;59.10
27114;DHT22;14648;49.730;8.614;2024-03-17T08:01:08;10.70;59.00
27114;DHT22;14648;49.730;8.614;2024-03-17T08:03:37;11.00;58.60
27114;DHT22;14648;49.730;8.614;2024-03-17T08:06:06;11.20;58.80
27114;DHT22;14648;49.730;8.614;2024-03-17T08:08:40;11.40;59.00
27114;DHT22;14648;49.730;8.614;2024-03-17T08:11:06;11.60;59.10
27114;DHT22;14648;49.730;8.614;2024-03-17T08:13:35;11.90;59.20
27114;DHT22;14648;49.730;8.614;2024-03-17T08:16:02;12.10;59.20
27114;DHT22;14648;49.730;8.614;2024-03-17T08:18:31;12.40;59.00
27114;DHT22;14648;49.730;8.614;2024-03-17T08:21:00;12.60;58.80
27114;DHT22;14648;49.730;8.614;2024-03-17T08:23:27;12.70;59.00
27114;DHT22;14648;49.730;8.614;2024-03-17T08:25:53;12.70;59.00
27114;DHT22;14648;49.730;8.614;2024-03-17T08:28:20;12.80;59.30
27114;DHT22;14648;49.730;8.614;2024-03-17T08:30:57;13.00;59.30
27114;DHT22;14648;49.730;8.614;2024-03-17T08:33:24;13.20;59.10
27114;DHT22;14648;49.730;8.614;2024-03-17T08:35:58;13.40;59.20
27114;DHT22;14648;49.730;8.614;2024-03-17T08:38:26;13.50;59.30
27114;DHT22;14648;49.730;8.614;2024-03-17T08:40:54;13.50;59.30
27114;DHT22;14648;49.730;8.614;2024-03-17T08:43:21;13.60;59.30
27114;DHT22;14648;49.730;8.614;2024-03-17T08:46:01;13.70;59.40
27114;DHT22;14648;49.730;8.614;2024-03-17T08:48:33;13.80;59.20
27114;DHT22;14648;49.730;8.614;2024-03-17T08:51:01;13.90;59.40
27114;DHT22;14648;49.730;8.614;2024-03-17T08:53:29;14.00;59.50
27114;DHT22;14648;49.730;8.614;2024-03-17T08:55:56;14.10;59.60
27114;DHT22;14648;49.730;8.614;2024-03-17T08:58:22;14.10;59.50
27114;DHT22;14648;49.730;8.614;2024-03-17T09:00:49;14.20;59.40
27114;DHT22;14648;49.730;8.614;2024-03-17T09:03:15;14.20;59.40
27114;DHT22;14648;49.730;8.614;2024-03-17T09:05:45;14.30;59.30
27114;DHT22;14648;49.730;8.614;2024-03-17T09:08:20;14.40;59.20
27114;DHT22;14648;49.730;8.614;2024-03-17T09:10:53;14.50;59.10
27114;DHT22;14648;49.730;8.614;2024-03-17T09:13:24;14.60;58.90
27114;DHT22;14648;49.730;8.614;2024-03-17T09:15:56;14.80;59.40
27114;DHT22;14648;49.730;8.614;2024-03-17T09:18:25;14.80;58.70
27114;DHT22;14648;49.730;8.614;2024-03-17T09:21:02;14.90;58.70
27114;DHT22;14648;49.730;8.614;2024-03-17T09:23:29;15.00;58.50
27114;DHT22;14648;49.730;8.614;2024-03-17T09:26:05;15.00;58.50
27114;DHT22;14648;49.730;8.614;2024-03-17T09:28:36;15.00;59.10
27114;DHT22;14648;49.730;8.614;2024-03-17T09:31:02;15.00;58.50
27114;DHT22;14648;49.730;8.614;2024-03-17T09:33:30;15.20;58.50
27114;DHT22;14648;49.730;8.614;2024-03-17T09:35:58;15.20;58.40
27114;DHT22;14648;49.730;8.614;2024-03-17T09:38:32;15.20;58.10
27114;DHT22;14648;49.730;8.614;2024-03-17T09:40:59;15.20;58.20
27114;DHT22;14648;49.730;8.614;2024-03-17T09:43:27;15.10;58.10
27114;DHT22;14648;49.730;8.614;2024-03-17T09:45:57;15.20;58.00
27114;DHT22;14648;49.730;8.614;2024-03-17T09:48:27;15.30;58.10
27114;DHT22;14648;49.730;8.614;2024-03-17T09:50:55;15.30;57.60
27114;DHT22;14648;49.730;8.614;2024-03-17T09:53:26;15.40;57.70
27114;DHT22;14648;49.730;8.614;2024-03-17T09:56:08;15.60;57.40
27114;DHT22;14648;49.730;8.614;2024-03-17T09:58:37;15.70;57.30
27114;DHT22;14648;49.730;8.614;2024-03-17T10:01:03;16.00;57.20
27114;DHT22;14648;49.730;8.614;2024-03-17T10:04:02;16.20;56.90
27114;DHT22;14648;49.730;8.614;2024-03-17T10:06:31;16.40;56.50
27114;DHT22;14648;49.730;8.614;2024-03-17T10:08:59;16.60;56.20
27114;DHT22;14648;49.730;8.614;2024-03-17T10:11:41;16.70;55.80
27114;DHT22;14648;49.730;8.614;2024-03-17T10:14:08;16.90;55.90
27114;DHT22;14648;49.730;8.614;2024-03-17T10:16:42;17.00;55.90
27114;DHT22;14648;49.730;8.614;2024-03-17T10:19:33;17.20;56.00
27114;DHT22;14648;49.730;8.614;2024-03-17T10:22:12;17.40;55.90
27114;DHT22;14648;49.730;8.614;2024-03-17T10:25:01;17.50;55.80
27114;DHT22;14648;49.730;8.614;2024-03-17T10:27:49;17.50;55.40
27114;DHT22;14648;49.730;8.614;2024-03-17T10:30:28;17.50;55.50
27114;DHT22;14648;49.730;8.614;2024-03-17T10:33:03;17.50;55.70
27114;DHT22;14648;49.730;8.614;2024-03-17T10:35:41;17.50;55.60
27114;DHT22;14648;49.730;8.614;2024-03-17T10:38:51;17.50;55.20
27114;DHT22;14648;49.730;8.614;2024-03-17T10:41:30;17.50;55.30
27114;DHT22;14648;49.730;8.614;2024-03-17T10:44:23;17.60;55.30
27114;DHT22;14648;49.730;8.614;2024-03-17T10:50:25;17.90;54.90
27114;DHT22;14648;49.730;8.614;2024-03-17T10:53:32;17.90;54.50
27114;DHT22;14648;49.730;8.614;2024-03-17T10:56:08;17.90;54.90
27114;DHT22;14648;49.730;8.614;2024-03-17T10:58:44;17.80;54.60
27114;DHT22;14648;49.730;8.614;2024-03-17T11:01:30;17.80;54.50
27114;DHT22;14648;49.730;8.614;2024-03-17T11:04:02;17.70;54.40
27114;DHT22;14648;49.730;8.614;2024-03-17T11:07:00;17.70;54.30
27114;DHT22;14648;49.730;8.614;2024-03-17T11:10:23;17.70;54.30
27114;DHT22;14648;49.730;8.614;2024-03-17T11:13:40;17.70;54.30
27114;DHT22;14648;49.730;8.614;2024-03-17T11:16:35;17.70;53.90
27114;DHT22;14648;49.730;8.614;2024-03-17T11:19:23;17.70;54.10
27114;DHT22;14648;49.730;8.614;2024-03-17T11:22:42;17.80;53.80
27114;DHT22;14648;49.730;8.614;2024-03-17T11:26:05;18.00;53.50
27114;DHT22;14648;49.730;8.614;2024-03-17T11:31:43;18.30;53.40
27114;DHT22;14648;49.730;8.614;2024-03-17T11:34:34;18.30;52.90
27114;DHT22;14648;49.730;8.614;2024-03-17T11:37:02;18.00;52.50
27114;DHT22;14648;49.730;8.614;2024-03-17T11:39:50;17.90;52.80
27114;DHT22;14648;49.730;8.614;2024-03-17T11:42:27;17.70;52.70
27114;DHT22;14648;49.730;8.614;2024-03-17T11:45:00;17.60;52.60
27114;DHT22;14648;49.730;8.614;2024-03-17T11:47:47;17.40;52.20
27114;DHT22;14648;49.730;8.614;2024-03-17T11:50:15;17.30;52.10
27114;DHT22;14648;49.730;8.614;2024-03-17T11:52:44;17.20;52.00
27114;DHT22;14648;49.730;8.614;2024-03-17T11:55:18;17.10;52.00
27114;DHT22;14648;49.730;8.614;2024-03-17T11:57:55;17.10;51.80
27114;DHT22;14648;49.730;8.614;2024-03-17T12:00:24;17.20;51.60
27114;DHT22;14648;49.730;8.614;2024-03-17T12:02:55;17.20;51.70
27114;DHT22;14648;49.730;8.614;2024-03-17T12:05:25;17.40;51.70
27114;DHT22;14648;49.730;8.614;2024-03-17T12:07:51;17.50;51.70
27114;DHT22;14648;49.730;8.614;2024-03-17T12:10:19;17.60;51.50
27114;DHT22;14648;49.730;8.614;2024-03-17T12:12:47;17.60;51.90
27114;DHT22;14648;49.730;8.614;2024-03-17T12:15:17;17.70;51.00
27114;DHT22;14648;49.730;8.614;2024-03-17T12:17:46;17.60;50.90
27114;DHT22;14648;49.730;8.614;2024-03-17T12:20:19;17.50;50.90
27114;DHT22;14648;49.730;8.614;2024-03-17T12:22:47;17.40;50.80
27114;DHT22;14648;49.730;8.614;2024-03-17T12:44:02;17.30;50.30
27114;DHT22;14648;49.730;8.614;2024-03-17T12:46:35;17.30;50.10
27114;DHT22;14648;49.730;8.614;2024-03-17T12:54:39;17.30;50.00
27114;DHT22;14648;49.730;8.614;2024-03-17T12:57:23;17.20;49.70
27114;DHT22;14648;49.730;8.614;2024-03-17T13:00:18;17.30;49.80
27114;DHT22;14648;49.730;8.614;2024-03-17T13:03:07;17.30;49.70
27114;DHT22;14648;49.730;8.614;2024-03-17T13:08:19;17.30;49.90
27114;DHT22;14648;49.730;8.614;2024-03-17T13:14:19;17.10;50.00
27114;DHT22;14648;49.730;8.614;2024-03-17T13:35:03;17.40;49.00
27114;DHT22;14648;49.730;8.614;2024-03-17T13:37:40;17.30;48.90
27114;DHT22;14648;49.730;8.614;2024-03-17T13:40:06;17.30;48.80
27114;DHT22;14648;49.730;8.614;2024-03-17T13:42:32;17.30;48.80
27114;DHT22;14648;49.730;8.614;2024-03-17T13:44:59;17.30;48.70
27114;DHT22;14648;49.730;8.614;2024-03-17T13:47:25;17.30;48.70
27114;DHT22;14648;49.730;8.614;2024-03-17T13:49:50;17.20;48.40
27114;DHT22;14648;49.730;8.614;2024-03-17T13:52:16;17.10;48.50
27114;DHT22;14648;49.730;8.614;2024-03-17T13:54:43;17.10;48.50
27114;DHT22;14648;49.730;8.614;2024-03-17T13:57:44;17.00;48.30
27114;DHT22;14648;49.730;8.614;2024-03-17T14:00:24;16.90;48.20
27114;DHT22;14648;49.730;8.614;2024-03-17T14:02:54;16.70;48.40
27114;DHT22;14648;49.730;8.614;2024-03-17T14:05:25;16.70;48.60
27114;DHT22;14648;49.730;8.614;2024-03-17T14:07:52;16.60;48.40
27114;DHT22;14648;49.730;8.614;2024-03-17T14:10:43;16.60;48.20
27114;DHT22;14648;49.730;8.614;2024-03-17T14:13:16;16.70;48.10
27114;DHT22;14648;49.730;8.614;2024-03-17T14:15:42;16.70;48.10
27114;DHT22;14648;49.730;8.614;2024-03-17T14:18:08;16.70;47.90
27114;DHT22;14648;49.730;8.614;2024-03-17T14:20:34;16.70;47.70
27114;DHT22;14648;49.730;8.614;2024-03-17T14:23:00;16.70;47.80
27114;DHT22;14648;49.730;8.614;2024-03-17T14:25:29;16.70;47.80
27114;DHT22;14648;49.730;8.614;2024-03-17T14:27:55;16.60;47.60
27114;DHT22;14648;49.730;8.614;2024-03-17T14:30:21;16.60;47.60
27114;DHT22;14648;49.730;8.614;2024-03-17T14:32:47;16.60;47.60
27114;DHT22;14648;49.730;8.614;2024-03-17T14:35:16;16.60;47.60
27114;DHT22;14648;49.730;8.614;2024-03-17T14:37:44;16.60;47.60
27114;DHT22;14648;49.730;8.614;2024-03-17T14:45:30;16.60;47.60
27114;DHT22;14648;49.730;8.614;2024-03-17T14:47:56;16.80;47.50
27114;DHT22;14648;49.730;8.614;2024-03-17T14:50:22;16.80;47.70
27114;DHT22;14648;49.730;8.614;2024-03-17T14:52:49;16.90;47.80
27114;DHT22;14648;49.730;8.614;2024-03-17T14:55:15;17.10;47.70
27114;DHT22;14648;49.730;8.614;2024-03-17T14:57:41;17.20;47.80
27114;DHT22;14648;49.730;8.614;2024-03-17T15:00:10;17.30;47.80
27114;DHT22;14648;49.730;8.614;2024-03-17T15:02:47;17.30;47.60
27114;DHT22;14648;49.730;8.614;2024-03-17T15:05:18;17.40;47.60
27114;DHT22;14648;49.730;8.614;2024-03-17T15:07:51;17.50;47.50
27114;DHT22;14648;49.730;8.614;2024-03-17T15:10:17;17.50;47.50
27114;DHT22;14648;49.730;8.614;2024-03-17T15:12:46;17.50;47.40
27114;DHT22;14648;49.730;8.614;2024-03-17T15:15:13;17.60;47.40
27114;DHT22;14648;49.730;8.614;2024-03-17T15:17:39;17.60;47.30
27114;DHT22;14648;49.730;8.614;2024-03-17T15:20:06;17.70;47.40
27114;DHT22;14648;49.730;8.614;2024-03-17T15:22:46;17.80;47.20
27114;DHT22;14648;49.730;8.614;2024-03-17T15:25:15;17.80;47.10
27114;DHT22;14648;49.730;8.614;2024-03-17T15:27:44;17.80;47.10
27114;DHT22;14648;49.730;8.614;2024-03-17T15:30:14;17.80;47.10
27114;DHT22;14648;49.730;8.614;2024-03-17T15:32:48;17.80;46.90
27114;DHT22;14648;49.730;8.614;2024-03-17T15:35:18;17.90;46.90
27114;DHT22;14648;49.730;8.614;2024-03-17T15:37:44;17.90;46.70
27114;DHT22;14648;49.730;8.614;2024-03-17T15:40:10;17.90;46.60
27114;DHT22;14648;49.730;8.614;2024-03-17T15:42:44;17.80;47.30
27114;DHT22;14648;49.730;8.614;2024-03-17T15:45:15;17.80;46.70
27114;DHT22;14648;49.730;8.614;2024-03-17T15:47:41;17.90;46.70
27114;DHT22;14648;49.730;8.614;2024-03-17T15:50:08;18.00;46.60
27114;DHT22;14648;49.730;8.614;2024-03-17T15:52:35;18.00;46.40
27114;DHT22;14648;49.730;8.614;2024-03-17T15:55:02;18.00;46.30
27114;DHT22;14648;49.730;8.614;2024-03-17T15:57:31;17.90;46.30
27114;DHT22;14648;49.730;8.614;2024-03-17T15:59:57;17.80;46.20
27114;DHT22;14648;49.730;8.614;2024-03-17T16:02:25;17.70;46.20
27114;DHT22;14648;49.730;8.614;2024-03-17T16:04:52;17.60;46.10
27114;DHT22;14648;49.730;8.614;2024-03-17T16:07:19;17.40;46.10
27114;DHT22;14648;49.730;8.614;2024-03-17T16:09:48;17.30;46.00
27114;DHT22;14648;49.730;8.614;2024-03-17T16:12:14;17.30;45.80
27114;DHT22;14648;49.730;8.614;2024-03-17T16:14:43;17.20;45.70
27114;DHT22;14648;49.730;8.614;2024-03-17T16:17:10;17.10;45.60
27114;DHT22;14648;49.730;8.614;2024-03-17T16:19:36;16.90;45.60
27114;DHT22;14648;49.730;8.614;2024-03-17T16:22:04;16.80;45.50
27114;DHT22;14648;49.730;8.614;2024-03-17T16:24:35;16.60;45.40
27114;DHT22;14648;49.730;8.614;2024-03-17T16:27:02;16.60;45.30
27114;DHT22;14648;49.730;8.614;2024-03-17T16:29:31;16.50;45.30
27114;DHT22;14648;49.730;8.614;2024-03-17T16:31:58;16.40;45.20
27114;DHT22;14648;49.730;8.614;2024-03-17T16:34:27;16.30;45.20
27114;DHT22;14648;49.730;8.614;2024-03-17T16:36:54;16.20;45.00
27114;DHT22;14648;49.730;8.614;2024-03-17T16:39:20;16.10;45.10
27114;DHT22;14648;49.730;8.614;2024-03-17T16:41:50;16.00;45.00
27114;DHT22;14648;49.730;8.614;2024-03-17T16:47:25;15.80;45.10
27114;DHT22;14648;49.730;8.614;2024-03-17T16:49:54;15.80;45.10
27114;DHT22;14648;49.730;8.614;2024-03-17T16:52:22;15.60;45.10
27114;DHT22;14648;49.730;8.614;2024-03-17T16:54:48;15.60;45.20
27114;DHT22;14648;49.730;8.614;2024-03-17T16:57:14;15.50;45.20
27114;DHT22;14648;49.730;8.614;2024-03-17T16:59:41;15.40;45.20
27114;DHT22;14648;49.730;8.614;2024-03-17T17:02:14;15.40;45.20